createdAt,value
2024-04-09T00:01:03.504Z,23.52
2024-04-09T00:03:39.628Z,23.50
2024-04-09T00:06:16.087Z,23.49
2024-04-09T00:08:56.971Z,23.48
2024-04-09T00:11:29.335Z,23.50
2024-04-09T00:14:06.139Z,23.52
2024-04-09T00:16:41.398Z,23.49
2024-04-09T00:19:18.800Z,23.45
2024-04-09T00:21:53.267Z,23.42
2024-04-09T00:24:33.323Z,23.38
2024-04-09T00:27:07.873Z,23.39
2024-04-09T00:29:42.989Z,23.37
2024-04-09T00:32:15.195Z,23.36
2024-04-09T00:34:50.199Z,23.34
2024-04-09T00:37:24.070Z,23.35
2024-04-09T00:40:04.007Z,23.37
2024-04-09T00:42:36.249Z,23.30
2024-04-09T00:45:11.766Z,23.29
2024-04-09T00:47:48.337Z,23.31
2024-04-09T00:50:25.716Z,23.29
2024-04-09T00:52:59.954Z,23.32
2024-04-09T00:55:41.958Z,23.27
2024-04-09T00:58:15.661Z,23.28
2024-04-09T01:00:50.816Z,23.24
2024-04-09T01:03:24.108Z,23.22
2024-04-09T01:05:58.954Z,23.19
2024-04-09T01:08:31.036Z,23.21
2024-04-09T01:11:08.804Z,23.21
2024-04-09T01:13:41.211Z,23.20
2024-04-09T01:16:16.205Z,23.15
2024-04-09T01:18:48.427Z,23.17
2024-04-09T01:21:23.745Z,23.15
2024-04-09T01:24:00.202Z,23.10
2024-04-09T01:26:35.972Z,23.11
2024-04-09T01:29:08.096Z,23.05
2024-04-09T01:31:42.781Z,23.10
2024-04-09T01:34:16.947Z,23.08
2024-04-09T01:36:52.879Z,23.07
2024-04-09T01:39:28.847Z,23.12
2024-04-09T01:42:04.416Z,23.05
2024-04-09T01:44:36.880Z,23.03
2024-04-09T01:47:11.587Z,23.04
2024-04-09T01:49:43.875Z,22.93
2024-04-09T01:52:18.562Z,22.96
2024-04-09T01:54:53.454Z,22.94
2024-04-09T01:57:32.990Z,22.83
2024-04-09T02:00:12.579Z,22.87
2024-04-09T02:02:47.987Z,22.80
2024-04-09T02:05:21.256Z,22.85
2024-04-09T02:07:55.939Z,22.86
2024-04-09T02:10:30.664Z,22.78
2024-04-09T02:13:05.346Z,22.77
2024-04-09T02:15:37.601Z,22.75
2024-04-09T02:18:12.532Z,22.73
2024-04-09T02:20:46.224Z,22.77
2024-04-09T02:23:21.120Z,22.73
2024-04-09T02:25:56.063Z,22.68
2024-04-09T02:28:30.736Z,22.71
2024-04-09T02:31:05.369Z,22.76
2024-04-09T02:33:40.252Z,22.79
2024-04-09T02:36:13.357Z,22.72
2024-04-09T02:38:49.942Z,22.69
2024-04-09T02:41:24.663Z,22.72
2024-04-09T02:43:59.366Z,22.69
2024-04-09T02:46:32.327Z,22.67
2024-04-09T02:49:08.033Z,22.67
2024-04-09T02:51:41.186Z,22.64
2024-04-09T02:54:16.480Z,22.65
2024-04-09T02:56:51.426Z,22.63
2024-04-09T02:59:26.228Z,22.60
2024-04-09T03:01:58.372Z,22.57
2024-04-09T03:04:33.809Z,22.55
2024-04-09T03:07:06.099Z,22.57
2024-04-09T03:09:42.726Z,22.52
2024-04-09T03:12:17.750Z,22.52
2024-04-09T03:14:52.664Z,22.54
2024-04-09T03:17:24.759Z,22.47
2024-04-09T03:19:59.442Z,22.44
2024-04-09T03:22:31.508Z,22.43
2024-04-09T03:25:07.748Z,22.41
2024-04-09T03:27:42.709Z,22.39
2024-04-09T03:30:17.533Z,22.38
2024-04-09T03:32:52.577Z,22.31
2024-04-09T03:35:27.948Z,22.27
2024-04-09T03:38:02.718Z,22.28
2024-04-09T03:40:37.529Z,22.20
2024-04-09T03:43:14.799Z,22.22
2024-04-09T03:46:03.925Z,22.19
2024-04-09T03:48:36.707Z,22.16
2024-04-09T03:51:14.867Z,22.18
2024-04-09T03:53:47.998Z,22.13
2024-04-09T03:56:23.060Z,22.13
2024-04-09T03:58:57.904Z,22.12
2024-04-09T04:01:33.836Z,22.14
2024-04-09T04:04:06.243Z,22.11
2024-04-09T04:06:41.257Z,22.08
2024-04-09T04:09:13.455Z,22.08
2024-04-09T04:11:48.491Z,22.02
2024-04-09T04:14:23.232Z,22.04
2024-04-09T04:16:58.298Z,22.01
2024-04-09T04:19:30.579Z,22.02
2024-04-09T04:22:05.485Z,21.98
2024-04-09T04:24:37.658Z,22.01
2024-04-09T04:27:13.321Z,21.96
2024-04-09T04:29:48.888Z,21.99
2024-04-09T04:32:23.702Z,21.98
2024-04-09T04:34:58.514Z,21.97
2024-04-09T04:37:30.852Z,21.95
2024-04-09T04:40:06.180Z,21.91
2024-04-09T04:42:38.812Z,21.89
2024-04-09T04:45:18.198Z,21.91
2024-04-09T04:47:50.366Z,21.87
2024-04-09T04:50:25.101Z,21.84
2024-04-09T04:52:57.611Z,21.82
2024-04-09T04:55:33.339Z,21.77
2024-04-09T04:58:06.457Z,21.78
2024-04-09T05:00:44.186Z,21.74
2024-04-09T05:03:16.491Z,21.73
2024-04-09T05:05:51.224Z,21.72
2024-04-09T05:08:23.521Z,21.62
2024-04-09T05:10:58.272Z,21.71
2024-04-09T05:13:30.485Z,21.67
2024-04-09T05:16:07.815Z,21.66
2024-04-09T05:18:39.983Z,21.66
2024-04-09T05:21:14.807Z,21.62
2024-04-09T05:23:47.446Z,21.61
2024-04-09T05:26:22.328Z,21.56
2024-04-09T05:28:56.383Z,21.57
2024-04-09T05:31:33.887Z,21.59
2024-04-09T05:34:06.511Z,21.56
2024-04-09T05:36:41.371Z,21.53
2024-04-09T05:39:13.820Z,21.58
2024-04-09T05:41:48.685Z,21.54
2024-04-09T05:44:21.115Z,21.49
2024-04-09T05:46:58.718Z,21.57
2024-04-09T05:49:31.201Z,21.53
2024-04-09T05:52:06.075Z,21.46
2024-04-09T05:54:41.263Z,21.47
2024-04-09T05:57:16.209Z,21.49
2024-04-09T05:59:48.697Z,21.42
2024-04-09T06:02:26.213Z,21.41
2024-04-09T06:05:00.658Z,21.38
2024-04-09T06:07:35.314Z,21.39
2024-04-09T06:10:07.600Z,21.34
2024-04-09T06:12:42.708Z,21.37
2024-04-09T06:15:15.539Z,21.32
2024-04-09T06:17:52.963Z,21.30
2024-04-09T06:20:25.051Z,21.22
2024-04-09T06:22:59.747Z,21.24
2024-04-09T06:25:33.058Z,21.21
2024-04-09T06:28:09.098Z,21.15
2024-04-09T06:30:41.890Z,21.12
2024-04-09T06:33:20.419Z,21.08
2024-04-09T06:35:52.848Z,21.09
2024-04-09T06:38:27.584Z,21.07
2024-04-09T06:41:00.603Z,20.73
2024-04-09T06:43:35.145Z,20.87
2024-04-09T06:46:07.912Z,20.86
2024-04-09T06:48:45.316Z,20.86
2024-04-09T06:51:17.629Z,20.85
2024-04-09T06:53:52.453Z,20.88
2024-04-09T06:56:24.925Z,20.82
2024-04-09T06:59:02.818Z,20.83
2024-04-09T07:01:35.439Z,20.86
2024-04-09T07:04:13.241Z,20.92
2024-04-09T07:06:45.630Z,20.91
2024-04-09T07:09:20.799Z,20.88
2024-04-09T07:11:53.317Z,20.85
2024-04-09T07:14:27.959Z,20.68
2024-04-09T07:17:00.066Z,20.79
2024-04-09T07:19:37.641Z,20.86
2024-04-09T07:22:11.139Z,20.89
2024-04-09T07:24:45.984Z,20.89
2024-04-09T07:27:18.205Z,20.85
2024-04-09T07:29:52.899Z,20.82
2024-04-09T07:32:25.635Z,20.76
2024-04-09T07:35:04.961Z,20.77
2024-04-09T07:37:37.814Z,20.72
2024-04-09T07:40:12.472Z,20.71
2024-04-09T07:42:44.580Z,20.71
2024-04-09T07:45:19.471Z,20.68
2024-04-09T07:47:52.722Z,20.63
2024-04-09T07:50:30.164Z,20.72
2024-04-09T07:53:02.427Z,20.69
2024-04-09T07:55:39.126Z,20.77
2024-04-09T07:58:11.916Z,20.71
2024-04-09T08:00:47.463Z,20.73
2024-04-09T08:03:23.171Z,20.76
2024-04-09T08:05:58.215Z,20.67
2024-04-09T08:08:38.147Z,20.65
2024-04-09T08:11:13.288Z,20.50
2024-04-09T08:13:48.082Z,20.76
2024-04-09T08:16:20.081Z,20.79
2024-04-09T08:18:57.488Z,20.76
2024-04-09T08:21:32.513Z,20.83
2024-04-09T08:24:07.918Z,20.72
2024-04-09T08:26:42.234Z,20.74
2024-04-09T08:29:17.866Z,20.70
2024-04-09T08:31:51.686Z,20.79
2024-04-09T08:34:27.550Z,20.80
2024-04-09T08:37:02.821Z,20.83
2024-04-09T08:39:38.420Z,20.74
2024-04-09T08:42:10.831Z,20.86
2024-04-09T08:44:47.727Z,20.87
2024-04-09T08:47:21.708Z,20.66
2024-04-09T08:50:01.596Z,20.85
2024-04-09T08:52:38.097Z,20.81
2024-04-09T08:55:13.590Z,20.79
2024-04-09T08:57:45.856Z,20.83
2024-04-09T09:00:21.810Z,20.89
2024-04-09T09:02:54.247Z,20.68
2024-04-09T09:05:29.037Z,20.89
2024-04-09T09:08:07.505Z,20.88
2024-04-09T09:10:43.121Z,20.90
2024-04-09T09:13:20.473Z,20.81
2024-04-09T09:15:58.191Z,20.99
2024-04-09T09:18:30.508Z,20.94
2024-04-09T09:21:06.818Z,20.93
2024-04-09T09:23:41.551Z,20.78
2024-04-09T09:26:26.422Z,20.90
2024-04-09T09:29:04.891Z,20.79
2024-04-09T09:31:43.095Z,20.92
2024-04-09T09:34:18.499Z,21.00
2024-04-09T09:36:59.976Z,21.05
2024-04-09T09:39:36.530Z,21.04
2024-04-09T09:42:13.687Z,21.03
2024-04-09T09:44:46.466Z,21.07
2024-04-09T09:47:22.510Z,21.11
2024-04-09T09:50:01.955Z,21.13
2024-04-09T09:52:45.774Z,21.11
2024-04-09T09:55:21.067Z,21.09
2024-04-09T09:57:58.358Z,21.21
2024-04-09T10:00:34.119Z,21.19
2024-04-09T10:03:09.948Z,21.24
2024-04-09T10:05:42.599Z,21.21
2024-04-09T10:08:20.653Z,21.23
2024-04-09T10:10:56.217Z,21.30
2024-04-09T10:13:31.665Z,21.30
2024-04-09T10:16:04.496Z,21.30
2024-04-09T10:18:40.341Z,21.43
2024-04-09T10:21:15.282Z,21.24
2024-04-09T10:23:51.630Z,21.24
2024-04-09T10:26:26.468Z,21.23
2024-04-09T10:29:07.782Z,21.13
2024-04-09T10:31:46.022Z,21.14
2024-04-09T10:34:32.462Z,21.06
2024-04-09T10:37:08.143Z,21.21
2024-04-09T10:39:44.122Z,21.13
2024-04-09T10:42:21.412Z,21.14
2024-04-09T10:44:56.028Z,21.16
2024-04-09T10:47:28.200Z,21.13
2024-04-09T10:50:03.530Z,21.19
2024-04-09T10:52:35.784Z,21.28
2024-04-09T10:55:10.733Z,21.24
2024-04-09T10:57:52.500Z,21.27
2024-04-09T11:00:28.276Z,21.24
2024-04-09T11:03:00.675Z,21.16
2024-04-09T11:05:35.598Z,21.11
2024-04-09T11:08:09.211Z,21.15
2024-04-09T11:10:44.154Z,21.18
2024-04-09T11:13:19.025Z,21.04
2024-04-09T11:15:53.693Z,21.08
2024-04-09T11:18:26.782Z,21.18
2024-04-09T11:21:03.092Z,21.18
2024-04-09T11:23:35.427Z,21.16
2024-04-09T11:26:10.560Z,21.23
2024-04-09T11:28:53.618Z,21.16
2024-04-09T11:31:28.803Z,21.24
2024-04-09T11:34:01.234Z,21.13
2024-04-09T11:36:37.649Z,21.16
2024-04-09T11:39:09.878Z,21.11
2024-04-09T11:41:45.753Z,21.07
2024-04-09T11:44:24.693Z,21.07
2024-04-09T11:47:00.050Z,21.13
2024-04-09T11:49:32.344Z,21.13
2024-04-09T11:52:07.766Z,21.15
2024-04-09T11:54:40.104Z,21.16
2024-04-09T11:57:16.278Z,21.02
2024-04-09T11:59:51.362Z,21.05
2024-04-09T12:02:27.311Z,21.01
2024-04-09T12:04:59.557Z,21.12
2024-04-09T12:07:34.569Z,21.15
2024-04-09T12:10:08.303Z,21.12
2024-04-09T12:12:43.451Z,21.19
2024-04-09T12:15:21.011Z,21.27
2024-04-09T12:17:53.319Z,21.24
2024-04-09T12:20:28.244Z,21.18
2024-04-09T12:23:00.498Z,21.22
2024-04-09T12:25:35.117Z,21.12
2024-04-09T12:28:07.732Z,21.16
2024-04-09T12:30:45.613Z,21.13
2024-04-09T12:33:21.044Z,21.22
2024-04-09T12:35:56.003Z,21.16
2024-04-09T12:38:28.651Z,21.09
2024-04-09T12:41:03.424Z,20.94
2024-04-09T12:43:35.888Z,21.01
2024-04-09T12:46:13.730Z,21.05
2024-04-09T12:49:00.495Z,21.02
2024-04-09T12:51:40.695Z,20.96
2024-04-09T12:54:13.121Z,21.11
2024-04-09T12:56:48.031Z,21.14
2024-04-09T12:59:26.421Z,21.07
2024-04-09T13:02:19.739Z,21.13
2024-04-09T13:04:52.305Z,21.21
2024-04-09T13:07:27.072Z,21.24
2024-04-09T13:09:59.210Z,21.22
2024-04-09T13:12:33.963Z,21.22
2024-04-09T13:16:44.151Z,21.20
2024-04-09T13:18:04.092Z,21.21
2024-04-09T13:20:36.388Z,21.12
2024-04-09T13:23:11.169Z,21.21
2024-04-09T13:25:43.691Z,21.18
2024-04-09T13:28:18.458Z,21.17
2024-04-09T13:30:50.813Z,21.18
2024-04-09T13:33:28.084Z,21.13
2024-04-09T13:36:00.140Z,21.10
2024-04-09T13:38:35.257Z,21.12
2024-04-09T13:41:07.443Z,21.20
2024-04-09T13:43:42.037Z,21.23
2024-04-09T13:46:16.750Z,21.21
2024-04-09T13:48:56.284Z,21.22
2024-04-09T13:51:28.464Z,21.35
2024-04-09T13:54:03.622Z,21.29
2024-04-09T13:56:36.190Z,21.24
2024-04-09T13:59:12.687Z,21.15
2024-04-09T14:01:45.171Z,21.19
2024-04-09T14:04:22.609Z,21.13
2024-04-09T14:06:54.771Z,21.08
2024-04-09T14:09:29.655Z,21.18
2024-04-09T14:12:02.293Z,21.18
2024-04-09T14:14:37.197Z,21.12
2024-04-09T14:17:09.661Z,21.04
2024-04-09T14:19:47.616Z,21.04
2024-04-09T14:22:20.757Z,21.06
2024-04-09T14:24:56.353Z,21.11
2024-04-09T14:27:28.341Z,21.01
2024-04-09T14:30:03.164Z,21.02
2024-04-09T14:32:35.526Z,21.04
2024-04-09T14:35:13.330Z,21.00
2024-04-09T14:37:46.051Z,20.99
2024-04-09T14:40:20.771Z,20.94
2024-04-09T14:42:55.732Z,20.97
2024-04-09T14:45:32.059Z,20.96
2024-04-09T14:48:05.801Z,20.89
2024-04-09T14:50:46.339Z,20.86
2024-04-09T14:53:18.421Z,20.91
2024-04-09T14:55:53.164Z,20.84
2024-04-09T14:58:25.828Z,20.88
2024-04-09T15:01:01.114Z,20.90
2024-04-09T15:03:33.430Z,20.93
2024-04-09T15:06:12.293Z,20.86
2024-04-09T15:08:44.494Z,20.90
2024-04-09T15:11:20.715Z,20.86
2024-04-09T15:13:52.976Z,20.80
2024-04-09T15:16:28.217Z,20.80
2024-04-09T15:19:00.468Z,20.89
2024-04-09T15:21:38.220Z,20.87
2024-04-09T15:24:12.963Z,20.90
2024-04-09T15:26:47.995Z,20.83
2024-04-09T15:29:20.878Z,20.85
2024-04-09T15:31:56.249Z,20.90
2024-04-09T15:34:29.442Z,20.92
2024-04-09T15:37:07.406Z,20.93
2024-04-09T15:39:40.342Z,20.90
2024-04-09T15:42:14.819Z,20.92
2024-04-09T15:44:47.814Z,20.83
2024-04-09T15:47:22.335Z,20.82
2024-04-09T15:49:54.413Z,20.78
2024-04-09T15:52:32.005Z,20.75
2024-04-09T15:55:05.328Z,20.71
2024-04-09T15:57:40.056Z,20.76
2024-04-09T16:00:13.544Z,20.74
2024-04-09T16:02:49.022Z,20.72
2024-04-09T16:05:21.284Z,20.75
2024-04-09T16:07:59.030Z,20.75
2024-04-09T16:10:31.304Z,20.68
2024-04-09T16:13:06.894Z,20.67
2024-04-09T16:15:39.358Z,20.74
2024-04-09T16:18:16.986Z,20.75
2024-04-09T16:20:49.230Z,20.75
2024-04-09T16:23:26.934Z,20.77
2024-04-09T16:26:02.548Z,20.77
2024-04-09T16:28:37.369Z,20.75
2024-04-09T16:31:09.350Z,20.78
2024-04-09T16:33:44.274Z,20.72
2024-04-09T16:36:16.674Z,20.74
2024-04-09T16:38:54.471Z,20.73
2024-04-09T16:41:26.731Z,20.75
2024-04-09T16:44:01.505Z,20.74
2024-04-09T16:46:33.689Z,20.69
2024-04-09T16:49:08.715Z,20.65
2024-04-09T16:51:41.404Z,20.64
2024-04-09T16:54:19.365Z,20.64
2024-04-09T16:56:57.191Z,20.68
2024-04-09T16:59:32.851Z,20.72
2024-04-09T17:02:07.881Z,20.71
2024-04-09T17:04:40.440Z,20.74
2024-04-09T17:07:15.894Z,20.64
2024-04-09T17:09:52.946Z,20.63
2024-04-09T17:12:27.605Z,20.58
2024-04-09T17:15:05.599Z,20.59
2024-04-09T17:17:43.906Z,20.58
2024-04-09T17:20:16.506Z,20.61
2024-04-09T17:22:52.602Z,20.60
2024-04-09T17:25:27.661Z,20.54
2024-04-09T17:28:05.434Z,20.53
2024-04-09T17:30:37.642Z,20.51
2024-04-09T17:33:16.722Z,20.51
2024-04-09T17:35:49.253Z,20.54
2024-04-09T17:38:24.133Z,20.53
2024-04-09T17:40:59.793Z,20.48
2024-04-09T17:43:34.787Z,20.53
2024-04-09T17:46:11.598Z,20.53
2024-04-09T17:48:46.307Z,20.51
2024-04-09T17:51:28.683Z,20.54
2024-04-09T17:54:03.538Z,20.51
2024-04-09T17:56:41.542Z,20.44
2024-04-09T17:59:31.158Z,20.42
2024-04-09T18:02:08.497Z,20.41
2024-04-09T18:04:40.755Z,20.41
2024-04-09T18:07:17.929Z,20.39
2024-04-09T18:09:50.382Z,20.40
2024-04-09T18:12:27.977Z,20.39
2024-04-09T18:15:00.635Z,20.37
2024-04-09T18:17:36.075Z,20.39
2024-04-09T18:20:09.739Z,20.35
2024-04-09T18:22:44.510Z,20.22
2024-04-09T18:25:17.168Z,20.34
2024-04-09T18:27:56.591Z,20.31
2024-04-09T18:30:28.996Z,20.33
2024-04-09T18:33:05.766Z,20.36
2024-04-09T18:35:38.239Z,20.30
2024-04-09T18:38:16.534Z,20.27
2024-04-09T18:40:59.528Z,20.25
2024-04-09T18:43:44.598Z,20.21
2024-04-09T18:46:18.725Z,20.18
2024-04-09T18:48:54.377Z,20.17
2024-04-09T18:51:26.434Z,20.11
2024-04-09T18:54:02.217Z,20.07
2024-04-09T18:56:36.122Z,20.13
2024-04-09T18:59:13.831Z,20.14
2024-04-09T19:01:46.388Z,20.07
2024-04-09T19:04:21.206Z,20.09
2024-04-09T19:06:53.319Z,20.03
2024-04-09T19:09:28.041Z,20.05
2024-04-09T19:12:00.239Z,20.03
2024-04-09T19:14:38.583Z,20.06
2024-04-09T19:17:11.102Z,20.07
2024-04-09T19:19:46.211Z,20.15
2024-04-09T19:22:18.458Z,20.01
2024-04-09T19:24:53.533Z,20.07
2024-04-09T19:27:25.684Z,19.85
2024-04-09T19:30:04.967Z,19.80
2024-04-09T19:32:37.160Z,19.74
2024-04-09T19:35:12.572Z,19.79
2024-04-09T19:37:44.903Z,19.76
2024-04-09T19:40:19.972Z,19.78
2024-04-09T19:42:54.335Z,19.74
2024-04-09T19:45:33.205Z,19.91
2024-04-09T19:48:07.300Z,19.83
2024-04-09T19:50:42.300Z,19.86
2024-04-09T19:53:25.908Z,19.82
2024-04-09T19:56:09.396Z,19.76
2024-04-09T19:58:41.645Z,19.74
2024-04-09T20:01:19.306Z,19.69
2024-04-09T20:03:51.764Z,19.76
2024-04-09T20:06:26.516Z,19.72
2024-04-09T20:08:58.612Z,19.73
2024-04-09T20:11:33.382Z,19.72
2024-04-09T20:14:05.564Z,19.75
2024-04-09T20:16:43.661Z,19.74
2024-04-09T20:19:16.551Z,19.77
2024-04-09T20:21:52.038Z,19.79
2024-04-09T20:24:24.269Z,19.76
2024-04-09T20:26:58.956Z,19.74
2024-04-09T20:29:31.143Z,19.66
2024-04-09T20:32:09.677Z,19.70
2024-04-09T20:34:43.767Z,19.78
2024-04-09T20:37:18.677Z,19.68
2024-04-09T20:39:50.971Z,19.74
2024-04-09T20:42:26.742Z,19.71
2024-04-09T20:44:59.044Z,19.77
2024-04-09T20:47:36.572Z,19.64
2024-04-09T20:50:08.818Z,19.62
2024-04-09T20:52:43.500Z,19.69
2024-04-09T20:55:16.196Z,19.45
2024-04-09T20:57:53.068Z,19.54
2024-04-09T21:00:27.600Z,19.61
2024-04-09T21:03:05.107Z,19.52
2024-04-09T21:05:37.397Z,19.56
2024-04-09T21:08:13.106Z,19.65
2024-04-09T21:10:47.553Z,19.62
2024-04-09T21:13:22.395Z,19.60
2024-04-09T21:15:54.550Z,19.72
2024-04-09T21:18:32.065Z,19.79
2024-04-09T21:21:06.911Z,19.79
2024-04-09T21:23:41.602Z,19.84
2024-04-09T21:26:15.031Z,19.84
2024-04-09T21:28:50.017Z,19.80
2024-04-09T21:31:22.372Z,19.82
2024-04-09T21:33:59.780Z,19.93
2024-04-09T21:36:31.875Z,19.79
2024-04-09T21:39:06.782Z,19.76
2024-04-09T21:41:41.715Z,19.80
2024-04-09T21:44:13.772Z,19.85
2024-04-09T21:46:48.535Z,19.71
2024-04-09T21:49:23.277Z,19.62
2024-04-09T21:51:58.077Z,19.56
2024-04-09T21:54:30.397Z,19.44
2024-04-09T21:57:05.995Z,19.47
2024-04-09T21:59:38.068Z,19.59
2024-04-09T22:02:12.783Z,19.58
2024-04-09T22:04:48.469Z,19.59
2024-04-09T22:07:23.980Z,19.55
2024-04-09T22:09:56.101Z,19.41
2024-04-09T22:12:30.874Z,19.65
2024-04-09T22:15:02.975Z,19.64
2024-04-09T22:20:12.650Z,19.54
2024-04-09T22:22:47.528Z,19.65
2024-04-09T22:25:19.526Z,19.67
2024-04-09T22:27:54.175Z,19.60
2024-04-09T22:30:26.347Z,19.60
2024-04-09T22:33:01.293Z,19.46
2024-04-09T22:35:36.469Z,19.62
2024-04-09T22:38:12.174Z,19.62
2024-04-09T22:40:44.425Z,19.52
2024-04-09T22:43:19.159Z,19.57
2024-04-09T22:45:59.335Z,19.56
2024-04-09T22:48:35.643Z,19.61
2024-04-09T22:51:11.433Z,19.55
2024-04-09T22:53:46.115Z,19.52
2024-04-09T22:56:18.314Z,19.60
2024-04-09T22:58:53.741Z,19.62
2024-04-09T23:01:25.943Z,19.25
2024-04-09T23:04:00.854Z,19.47
2024-04-09T23:06:35.653Z,19.40
2024-04-09T23:09:13.817Z,19.39
2024-04-09T23:11:46.051Z,19.45
2024-04-09T23:14:21.599Z,19.47
2024-04-09T23:16:54.439Z,19.45
2024-04-09T23:19:30.279Z,19.35
2024-04-09T23:22:05.329Z,19.41
2024-04-09T23:24:40.248Z,19.41
2024-04-09T23:27:12.353Z,19.42
2024-04-09T23:29:49.450Z,19.44
2024-04-09T23:32:21.689Z,19.44
2024-04-09T23:34:56.507Z,19.41
2024-04-09T23:37:31.290Z,19.24
2024-04-09T23:40:07.562Z,19.33
2024-04-09T23:42:39.636Z,19.29
2024-04-09T23:45:14.481Z,19.24
2024-04-09T23:47:47.573Z,19.02
2024-04-09T23:50:22.825Z,19.19
2024-04-09T23:52:57.735Z,19.22
2024-04-09T23:55:32.876Z,19.23
2024-04-09T23:58:05.229Z,19.25
